createdAt,value
2019-03-08T00:00:49.700Z,87.23
2019-03-08T00:03:57.665Z,87.20
2019-03-08T00:07:04.322Z,86.80
2019-03-08T00:10:10.660Z,86.87
2019-03-08T00:13:17.119Z,87.13
2019-03-08T00:16:23.516Z,87.23
2019-03-08T00:19:30.602Z,87.26
2019-03-08T00:22:36.960Z,86.83
2019-03-08T00:25:43.715Z,86.61
2019-03-08T00:28:50.422Z,86.45
2019-03-08T00:31:58.065Z,86.19
2019-03-08T00:35:04.915Z,86.45
2019-03-08T00:38:11.362Z,86.12
2019-03-08T00:41:17.821Z,86.52
2019-03-08T00:44:24.254Z,86.43
2019-03-08T00:47:30.597Z,86.04
2019-03-08T00:50:37.528Z,85.65
2019-03-08T00:53:44.253Z,85.61
2019-03-08T00:56:51.957Z,85.77
2019-03-08T00:59:58.346Z,85.26
2019-03-08T01:03:05.002Z,84.95
2019-03-08T01:06:11.490Z,84.79
2019-03-08T01:09:19.566Z,84.95
2019-03-08T01:12:25.974Z,85.13
2019-03-08T01:15:33.033Z,85.13
2019-03-08T01:18:39.684Z,84.90
2019-03-08T01:21:46.881Z,84.89
2019-03-08T01:24:53.245Z,84.79
2019-03-08T01:28:07.994Z,84.79
2019-03-08T01:31:14.401Z,84.62
2019-03-08T01:34:21.117Z,84.92
2019-03-08T01:37:27.717Z,85.00
2019-03-08T01:40:34.485Z,84.99
2019-03-08T01:43:43.595Z,84.76
2019-03-08T01:46:50.104Z,84.31
2019-03-08T01:49:56.710Z,84.99
2019-03-08T01:53:03.153Z,84.89
2019-03-08T01:56:09.520Z,84.43
2019-03-08T01:59:16.083Z,84.36
2019-03-08T02:02:22.605Z,84.23
2019-03-08T02:05:29.250Z,84.23
2019-03-08T02:08:35.597Z,84.33
2019-03-08T02:11:42.071Z,84.40
2019-03-08T02:14:48.525Z,84.43
2019-03-08T02:17:54.935Z,84.28
2019-03-08T02:21:06.597Z,84.68
2019-03-08T02:24:09.728Z,84.63
2019-03-08T02:27:16.108Z,84.96
2019-03-08T02:30:22.673Z,85.25
2019-03-08T02:33:28.932Z,84.95
2019-03-08T02:36:35.462Z,84.89
2019-03-08T02:39:41.948Z,85.10
2019-03-08T02:42:48.491Z,85.17
2019-03-08T02:45:55.107Z,85.47
2019-03-08T02:49:01.589Z,85.70
2019-03-08T02:52:07.924Z,85.64
2019-03-08T02:55:14.351Z,85.59
2019-03-08T02:58:21.673Z,85.60
2019-03-08T03:01:28.971Z,85.69
2019-03-08T03:04:36.529Z,85.62
2019-03-08T03:07:42.991Z,85.77
2019-03-08T03:10:49.384Z,85.74
2019-03-08T03:13:55.926Z,85.75
2019-03-08T03:17:02.362Z,85.83
2019-03-08T03:20:09.806Z,85.50
2019-03-08T03:23:16.131Z,85.73
2019-03-08T03:26:23.165Z,85.43
2019-03-08T03:29:29.436Z,85.57
2019-03-08T03:32:35.979Z,85.71
2019-03-08T03:35:42.340Z,85.23
2019-03-08T03:38:49.036Z,85.50
2019-03-08T03:41:55.424Z,85.60
2019-03-08T03:45:02.164Z,85.46
2019-03-08T03:48:08.792Z,85.50
2019-03-08T03:51:15.273Z,85.21
2019-03-08T03:54:21.645Z,85.02
2019-03-08T03:57:28.078Z,85.27
2019-03-08T04:00:34.331Z,85.17
2019-03-08T04:03:40.716Z,85.35
2019-03-08T04:06:47.980Z,85.26
2019-03-08T04:09:54.625Z,85.26
2019-03-08T04:13:01.985Z,85.67
2019-03-08T04:16:08.762Z,85.60
2019-03-08T04:19:15.122Z,85.58
2019-03-08T04:22:21.504Z,85.74
2019-03-08T04:25:28.976Z,85.49
2019-03-08T04:28:35.731Z,85.71
2019-03-08T04:31:43.421Z,85.90
2019-03-08T04:34:51.618Z,86.12
2019-03-08T04:37:58.021Z,86.35
2019-03-08T04:41:04.572Z,86.70
2019-03-08T04:44:10.941Z,86.47
2019-03-08T04:47:17.437Z,86.52
2019-03-08T04:50:24.506Z,86.78
2019-03-08T04:53:33.333Z,86.57
2019-03-08T04:56:39.940Z,86.87
2019-03-08T04:59:46.317Z,86.96
2019-03-08T05:02:52.650Z,86.60
2019-03-08T05:06:00.748Z,86.76
2019-03-08T05:09:07.666Z,86.81
2019-03-08T05:12:14.420Z,86.77
2019-03-08T05:15:21.133Z,86.74
2019-03-08T05:18:27.580Z,86.95
2019-03-08T05:21:34.002Z,87.10
2019-03-08T05:24:40.771Z,87.02
2019-03-08T05:27:47.684Z,86.87
2019-03-08T05:30:54.722Z,86.97
2019-03-08T05:34:01.461Z,87.01
2019-03-08T05:37:08.074Z,86.69
2019-03-08T05:40:14.554Z,86.53
2019-03-08T05:43:22.795Z,86.76
2019-03-08T05:46:29.715Z,86.81
2019-03-08T05:49:36.000Z,86.87
2019-03-08T05:52:42.721Z,86.70
2019-03-08T05:55:49.177Z,86.50
2019-03-08T05:58:55.524Z,86.55
2019-03-08T06:02:02.012Z,86.65
2019-03-08T06:05:08.408Z,86.34
2019-03-08T06:08:16.924Z,86.55
2019-03-08T06:11:23.381Z,86.45
2019-03-08T06:14:29.820Z,86.31
2019-03-08T06:17:37.282Z,86.40
2019-03-08T06:20:43.869Z,86.07
2019-03-08T06:23:50.319Z,86.02
2019-03-08T06:26:56.695Z,86.05
2019-03-08T06:30:18.380Z,85.68
2019-03-08T06:33:26.061Z,85.98
2019-03-08T06:36:32.737Z,86.16
2019-03-08T06:39:39.538Z,85.98
2019-03-08T06:42:45.917Z,85.95
2019-03-08T06:45:52.644Z,85.87
2019-03-08T06:49:00.429Z,85.61
2019-03-08T06:52:06.856Z,85.50
2019-03-08T06:55:13.422Z,85.34
2019-03-08T06:58:44.124Z,85.43
2019-03-08T07:01:50.869Z,85.57
2019-03-08T07:04:57.287Z,85.73
2019-03-08T07:08:03.668Z,85.73
2019-03-08T07:11:10.176Z,86.34
2019-03-08T07:14:16.564Z,86.46
2019-03-08T07:17:23.128Z,86.45
2019-03-08T07:20:49.677Z,86.80
2019-03-08T07:24:10.399Z,86.87
2019-03-08T07:27:34.781Z,87.15
2019-03-08T07:31:03.248Z,87.45
2019-03-08T07:34:47.085Z,87.54
2019-03-08T07:38:04.343Z,87.62
2019-03-08T07:41:28.980Z,87.53
2019-03-08T07:44:41.121Z,87.86
2019-03-08T07:47:56.027Z,87.78
2019-03-08T07:51:19.994Z,87.84
2019-03-08T07:54:39.204Z,87.49
2019-03-08T07:57:55.181Z,87.57
2019-03-08T08:01:23.342Z,87.81
2019-03-08T08:04:46.413Z,87.39
2019-03-08T08:08:02.206Z,87.57
2019-03-08T08:11:22.564Z,87.47
2019-03-08T08:14:52.106Z,87.51
2019-03-08T08:18:04.645Z,87.09
2019-03-08T08:21:20.768Z,87.23
2019-03-08T08:24:43.201Z,87.09
2019-03-08T08:28:01.852Z,87.41
2019-03-08T08:31:45.731Z,87.48
2019-03-08T08:35:22.309Z,87.40
2019-03-08T08:38:43.766Z,87.49
2019-03-08T08:42:09.394Z,87.74
2019-03-08T08:45:33.646Z,87.88
2019-03-08T08:48:58.377Z,87.68
2019-03-08T08:52:14.666Z,87.65
2019-03-08T08:55:59.907Z,87.43
2019-03-08T08:59:26.898Z,86.94
2019-03-08T09:02:45.926Z,87.23
2019-03-08T09:06:04.836Z,86.90
2019-03-08T09:09:25.973Z,87.17
2019-03-08T09:12:51.318Z,87.03
2019-03-08T09:16:10.770Z,86.78
2019-03-08T09:19:27.423Z,86.82
2019-03-08T09:22:45.213Z,87.24
2019-03-08T09:26:10.580Z,87.40
2019-03-08T09:29:27.168Z,87.90
2019-03-08T09:32:59.335Z,87.69
2019-03-08T09:36:11.350Z,87.92
2019-03-08T09:39:47.117Z,88.07
2019-03-08T09:43:13.693Z,87.87
2019-03-08T09:46:37.903Z,88.02
2019-03-08T09:49:50.150Z,88.27
2019-03-08T09:53:13.467Z,87.83
2019-03-08T09:56:39.567Z,87.82
2019-03-08T10:00:00.353Z,87.30
2019-03-08T10:03:24.665Z,87.63
2019-03-08T10:06:38.725Z,87.57
2019-03-08T10:09:57.793Z,87.77
2019-03-08T10:13:22.669Z,87.79
2019-03-08T10:16:50.800Z,87.74
2019-03-08T10:20:16.477Z,88.33
2019-03-08T10:23:46.526Z,88.58
2019-03-08T10:27:03.856Z,88.07
2019-03-08T10:30:23.065Z,88.28
2019-03-08T10:33:46.197Z,88.31
2019-03-08T10:37:03.804Z,88.20
2019-03-08T10:40:23.775Z,88.25
2019-03-08T10:44:08.980Z,87.89
2019-03-08T10:47:21.813Z,88.35
2019-03-08T10:50:47.308Z,88.06
2019-03-08T10:54:00.850Z,88.34
2019-03-08T10:57:22.745Z,88.29
2019-03-08T11:00:42.931Z,88.75
2019-03-08T11:03:59.322Z,88.90
2019-03-08T11:07:27.670Z,88.25
2019-03-08T11:10:41.622Z,88.21
2019-03-08T11:13:57.670Z,88.16
2019-03-08T11:17:15.781Z,88.09
2019-03-08T11:20:46.371Z,87.61
2019-03-08T11:24:11.669Z,87.87
2019-03-08T11:27:35.232Z,87.67
2019-03-08T11:30:53.915Z,87.67
2019-03-08T11:34:20.154Z,87.94
2019-03-08T11:37:54.844Z,87.73
2019-03-08T11:41:17.141Z,87.89
2019-03-08T11:44:48.747Z,87.57
2019-03-08T11:48:13.073Z,87.50
2019-03-08T11:51:28.431Z,87.73
2019-03-08T11:54:50.903Z,88.21
2019-03-08T11:58:28.608Z,87.85
2019-03-08T12:02:07.355Z,87.84
2019-03-08T12:05:38.917Z,87.12
2019-03-08T12:08:55.102Z,87.38
2019-03-08T12:12:21.230Z,87.37
2019-03-08T12:15:52.372Z,87.19
2019-03-08T12:19:06.989Z,87.11
2019-03-08T12:22:20.070Z,87.36
2019-03-08T12:25:45.437Z,87.31
2019-03-08T12:29:13.972Z,87.16
2019-03-08T12:32:38.673Z,87.36
2019-03-08T12:35:57.549Z,87.31
2019-03-08T12:39:24.016Z,87.05
2019-03-08T12:42:56.087Z,86.88
2019-03-08T12:46:16.291Z,86.83
2019-03-08T12:49:41.131Z,86.41
2019-03-08T12:53:06.481Z,86.11
2019-03-08T12:56:31.817Z,86.20
2019-03-08T12:59:55.909Z,86.27
2019-03-08T13:03:23.836Z,86.21
2019-03-08T13:06:55.443Z,85.88
2019-03-08T13:10:17.771Z,85.79
2019-03-08T13:13:26.019Z,85.91
2019-03-08T13:16:32.417Z,85.46
2019-03-08T13:19:39.399Z,85.38
2019-03-08T13:22:46.067Z,85.34
2019-03-08T13:25:52.813Z,85.18
2019-03-08T13:28:59.342Z,85.02
2019-03-08T13:32:05.780Z,85.36
2019-03-08T13:35:13.008Z,85.14
2019-03-08T13:38:19.663Z,85.10
2019-03-08T13:41:28.356Z,85.57
2019-03-08T13:44:35.084Z,85.57
2019-03-08T13:47:42.276Z,85.59
2019-03-08T13:50:48.610Z,85.21
2019-03-08T13:53:55.210Z,85.03
2019-03-08T13:57:04.408Z,85.04
2019-03-08T14:00:13.875Z,85.18
2019-03-08T14:03:21.538Z,85.27
2019-03-08T14:06:27.945Z,85.00
2019-03-08T14:09:34.617Z,85.06
2019-03-08T14:12:40.994Z,85.12
2019-03-08T14:15:48.068Z,84.99
2019-03-08T14:18:54.534Z,85.06
2019-03-08T14:22:00.879Z,85.49
2019-03-08T14:25:08.369Z,85.45
2019-03-08T14:28:15.602Z,85.75
2019-03-08T14:31:45.443Z,85.78
2019-03-08T14:34:53.739Z,85.99
2019-03-08T14:38:00.861Z,85.66
2019-03-08T14:41:30.642Z,85.38
2019-03-08T14:44:48.018Z,86.09
2019-03-08T14:47:56.984Z,85.44
2019-03-08T14:51:03.772Z,85.67
2019-03-08T14:54:10.892Z,85.72
2019-03-08T14:57:26.853Z,85.83
2019-03-08T15:00:29.127Z,85.69
2019-03-08T15:03:43.432Z,85.99
2019-03-08T15:06:47.118Z,85.71
2019-03-08T15:09:53.527Z,86.23
2019-03-08T15:13:02.277Z,85.79
2019-03-08T15:16:08.647Z,86.09
2019-03-08T15:19:16.143Z,86.49
2019-03-08T15:22:22.971Z,86.76
2019-03-08T15:25:31.401Z,86.08
2019-03-08T15:28:37.495Z,86.33
2019-03-08T15:31:43.998Z,87.28
2019-03-08T15:34:50.523Z,87.38
2019-03-08T15:37:56.850Z,87.38
2019-03-08T15:41:03.296Z,86.42
2019-03-08T15:44:09.733Z,84.73
2019-03-08T15:47:23.475Z,84.66
2019-03-08T15:50:24.952Z,85.74
2019-03-08T15:53:31.562Z,86.37
2019-03-08T15:56:37.980Z,86.49
2019-03-08T15:59:44.799Z,85.82
2019-03-08T16:02:54.317Z,85.04
2019-03-08T16:06:02.997Z,85.36
2019-03-08T16:09:10.058Z,85.03
2019-03-08T16:12:17.167Z,85.05
2019-03-08T16:15:23.578Z,85.90
2019-03-08T16:18:30.005Z,86.46
2019-03-08T16:21:37.169Z,87.13
2019-03-08T16:24:43.836Z,84.65
2019-03-08T16:27:50.471Z,84.41
2019-03-08T16:31:06.551Z,85.37
2019-03-08T16:34:15.912Z,82.67
2019-03-08T16:37:44.131Z,82.67
2019-03-08T16:41:12.328Z,83.47
2019-03-08T16:44:49.884Z,83.17
2019-03-08T16:48:15.027Z,84.21
2019-03-08T16:51:34.095Z,83.98
2019-03-08T16:54:58.161Z,85.24
2019-03-08T16:58:20.811Z,85.38
2019-03-08T17:01:51.109Z,85.32
2019-03-08T17:05:03.575Z,85.01
2019-03-08T17:08:22.350Z,85.34
2019-03-08T17:11:46.952Z,84.10
2019-03-08T17:15:01.212Z,85.29
2019-03-08T17:18:46.073Z,84.79
2019-03-08T17:22:01.528Z,84.32
2019-03-08T17:25:14.906Z,83.62
2019-03-08T17:28:34.136Z,84.30
2019-03-08T17:32:01.069Z,82.90
2019-03-08T17:35:31.000Z,82.82
2019-03-08T17:39:08.971Z,84.73
2019-03-08T17:42:34.464Z,84.66
2019-03-08T17:46:09.990Z,86.64
2019-03-08T17:49:39.473Z,85.56
2019-03-08T17:52:56.370Z,84.52
2019-03-08T17:56:22.899Z,84.89
2019-03-08T17:59:38.356Z,85.53
2019-03-08T18:03:09.333Z,86.03
2019-03-08T18:06:25.195Z,84.41
2019-03-08T18:09:44.981Z,85.66
2019-03-08T18:12:58.495Z,85.49
2019-03-08T18:16:18.878Z,85.58
2019-03-08T18:19:50.755Z,86.18
2019-03-08T18:23:22.378Z,86.01
2019-03-08T18:26:47.515Z,85.48
2019-03-08T18:30:16.441Z,85.37
2019-03-08T18:33:43.318Z,84.78
2019-03-08T18:36:59.208Z,84.98
2019-03-08T18:40:25.865Z,84.70
2019-03-08T18:43:51.009Z,84.45
2019-03-08T18:47:16.356Z,83.84
2019-03-08T18:50:40.916Z,84.48
2019-03-08T18:54:18.775Z,84.72
2019-03-08T18:57:51.284Z,84.32
2019-03-08T19:01:20.973Z,84.20
2019-03-08T19:04:46.415Z,84.95
2019-03-08T19:08:00.084Z,85.38
2019-03-08T19:11:24.764Z,85.21
2019-03-08T19:14:48.026Z,84.99
2019-03-08T19:18:02.338Z,83.99
2019-03-08T19:21:33.849Z,83.87
2019-03-08T19:25:06.173Z,84.36
2019-03-08T19:28:21.164Z,84.90
2019-03-08T19:31:42.321Z,85.99
2019-03-08T19:35:11.025Z,85.82
2019-03-08T19:38:42.588Z,86.02
2019-03-08T19:42:26.060Z,85.57
2019-03-08T19:45:54.427Z,85.65
2019-03-08T19:49:19.527Z,85.74
2019-03-08T19:52:37.875Z,86.37
2019-03-08T19:56:03.504Z,86.97
2019-03-08T19:59:33.972Z,87.95
2019-03-08T20:02:45.991Z,88.51
2019-03-08T20:06:07.278Z,88.51
2019-03-08T20:09:36.092Z,87.84
2019-03-08T20:12:50.041Z,88.06
2019-03-08T20:16:08.285Z,89.18
2019-03-08T20:19:26.902Z,87.73
2019-03-08T20:23:04.317Z,88.27
2019-03-08T20:26:42.045Z,88.21
2019-03-08T20:30:01.807Z,88.53
2019-03-08T20:33:24.078Z,88.29
2019-03-08T20:36:41.750Z,88.04
2019-03-08T20:40:10.515Z,87.71
2019-03-08T20:43:48.017Z,86.76
2019-03-08T20:46:58.433Z,86.89
2019-03-08T20:50:05.342Z,86.74
2019-03-08T20:53:16.256Z,86.20
2019-03-08T20:56:23.521Z,85.61
2019-03-08T20:59:30.323Z,85.08
2019-03-08T21:02:37.298Z,84.77
2019-03-08T21:05:43.892Z,84.83
2019-03-08T21:08:50.474Z,84.47
2019-03-08T21:11:58.998Z,84.65
2019-03-08T21:15:07.086Z,85.31
2019-03-08T21:18:13.881Z,86.21
2019-03-08T21:21:20.605Z,86.40
2019-03-08T21:24:27.762Z,86.13
2019-03-08T21:27:34.293Z,86.07
2019-03-08T21:30:41.363Z,86.55
2019-03-08T21:33:47.895Z,86.29
2019-03-08T21:36:54.729Z,86.18
2019-03-08T21:40:01.135Z,84.58
2019-03-08T21:43:11.525Z,83.73
2019-03-08T21:46:18.339Z,82.73
2019-03-08T21:49:25.283Z,83.43
2019-03-08T21:52:31.810Z,82.00
2019-03-08T21:55:39.466Z,81.75
2019-03-08T21:58:46.903Z,79.50
2019-03-08T22:01:53.323Z,78.71
2019-03-08T22:05:02.009Z,79.08
2019-03-08T22:08:16.951Z,77.85
2019-03-08T22:11:20.006Z,77.07
2019-03-08T22:14:26.803Z,75.75
2019-03-08T22:17:33.583Z,75.95
2019-03-08T22:20:40.516Z,75.74
2019-03-08T22:23:47.566Z,73.63
2019-03-08T22:26:54.389Z,74.17
2019-03-08T22:30:02.435Z,74.81
2019-03-08T22:33:09.187Z,74.27
2019-03-08T22:36:15.725Z,75.23
2019-03-08T22:39:22.492Z,74.37
2019-03-08T22:42:29.065Z,73.61
2019-03-08T22:45:35.332Z,75.82
2019-03-08T22:48:42.763Z,74.61
2019-03-08T22:51:50.017Z,73.25
2019-03-08T22:54:56.431Z,73.45
2019-03-08T22:58:03.387Z,73.34
2019-03-08T23:01:12.700Z,74.55
2019-03-08T23:04:20.726Z,72.79
2019-03-08T23:07:27.236Z,72.99
2019-03-08T23:10:33.592Z,74.23
2019-03-08T23:13:42.125Z,74.00
2019-03-08T23:16:48.564Z,75.30
2019-03-08T23:19:55.030Z,75.29
2019-03-08T23:23:01.756Z,75.43
2019-03-08T23:26:08.567Z,75.22
2019-03-08T23:29:22.048Z,75.45
2019-03-08T23:32:34.474Z,75.74
2019-03-08T23:35:41.379Z,76.17
2019-03-08T23:38:47.720Z,76.07
2019-03-08T23:41:54.078Z,76.08
2019-03-08T23:45:00.399Z,76.07
2019-03-08T23:48:06.672Z,76.27
2019-03-08T23:51:12.950Z,76.04
2019-03-08T23:54:19.440Z,75.82
2019-03-08T23:57:25.830Z,75.58
